Kezdőlap
METAR-TAF:

METAR-TAF

Repülőterek :

Padang, Indonézia

földrajzi szélesség: 00-47-12S, földrajzi hosszúság: 100-16-50E, magasság: 5 m

Jelenlegi meteorológiai megfigyelések

A jelentés 32 perccel ezelõtt készült, 19:00 UTC
Északkeleti szél 4 kt
Hőmérséklet 27°C
Páratartalom 89%
Légköri nyomás 1008 hPa
Látótávolság 10 km, vagy több
Szórványos felhőzet 2000 lábon

METAR: WIEE 201900Z 04004KT 9999 SCT020 27/25 Q1008

Idő: 02:32 (19:32 UTC)

Előrejelzés

A jelentés 2 órával és 32 perccel ezelõtt készült, 17:00 UTC
Az előrejelzés 20-én 18 óra UTC és 21-én 18 óra UTC között érvényes
Észak-északkeleti szél 6 kt
Látótávolság 10 km, vagy több
Szakadozott felhőzet 2000 lábon
21-én 07 óra UTC és 21-én 09 óra UTC között ideiglenes
Látótávolság: 4000 m
enyhe esõ,

TAF: WIEE 201700Z 2018/2118 02006KT 9999 BKN020 TEMPO 2107/2109 4000 -RA

Meteorológiai megfigyelések és előrejelzések több, mint 4000 repülőtéren (METAR és TAF jelentéseket).

A térképen piros és sárga pontok jelzik az elérhető meteorológiai állomásokat.

Mozgassa az egeret a pont fölött, hogy megjelenjen az állomás neve.

Azután kattintson az időjárási megfigyelések és előrejelzések megtekintéséhez.

A térkép megváltoztatása: kattintson a fekete keresztel jelölt zöld gombra ráközelítéshez, a vonallal jelölt zöld gombra távolításhoz, vagy a zöld nyilakra a szomszédos térképek eléréséhez.


METAR-TAF: